Pagrindinis puslapis
METAR-TAF:

METAR-TAF

Oro uostai :

Temukas, Čilė

platuma: 38-55-33S, ilguma: 72-39-05W, Aukštis: 98 m

Dabartinis oras

Ataskaita buvo paskelbta 43 minutes, ne 06:00 UTC
Vėjas 2 kt nuo kintamojo kryptimis
Temperatūra -1°C
Drėgmė 100%
Slėgis 1023 hPa
Matomumas: 0900 m
Išsisklaidę debesys ne aukštis 300 ft
rūkas

METAR: SCQP 140600Z AUTO VRB02KT 1000 0900 R01/1000N FG SCT003 M01/M01 Q1023

Laikas: 02:43 (06:43 UTC)

Prognozė

Ataskaita buvo paskelbta 2 valandos ir 35 minutes, ne 04:08 UTC
Prognozė galioja nuo 14 metu 06 UTC su 15 metu 06 UTC
Vėjas 2 kt nuo kintamojo kryptimis
Matomumas: 2000 m
Mažai debesys ne aukštis 300 ft
rūkana
Laikinai
nuo 14 metu 09 UTC su 14 metu 12 UTC
Matomumas: 0700 m
Išsisklaidę debesys ne aukštis 100 ft
rūkas
Tapsmas
nuo 14 metu 13 UTC su 14 metu 15 UTC
Matomumas 10 km arba daugiau
nėra debesų žemiau 1500 m ir nėra kamuolinių lietaus debesų

TAF: SCQP 140408Z 1406/1506 VRB02KT 2000 BR FEW003 TNM01/1407Z TX13/1418Z TEMPO 1409/1412 0700 FG SCT001 BECMG 1413/1415 CAVOK

Orai ataskaitas ir orų prognozės (METAR, TAF).

turimą stotys yra geltonos ir raudonos taškus žemėlapyje.

Perkelti pele per norėdami pamatyti stoties vardą.

Tada spustelėkite, norėdami matyti oro stebėjimo ir prognozės.

Norėdami pakeisti žemėlapį: spustelėkite ant žalios mygtukų su juodo kryžiaus žemyn,; žalią mygtuką su brūkšneliu, jei norite nutolinti; arba žalių rodyklių gretimoms žemėlapius.


METAR-TAF: